sensor_id;sensor_type;location;lat;lon;timestamp;pressure;altitude;pressure_sealevel;temperature;humidity
75549;BME280;64133;56.002;37.208;2022-10-26T00:00:28;99474.28;;;-0.83;80.80
75549;BME280;64133;56.002;37.208;2022-10-26T00:05:33;99483.17;;;-0.79;80.39
75549;BME280;64133;56.002;37.208;2022-10-26T00:10:38;99475.87;;;-0.79;80.47
75549;BME280;64133;56.002;37.208;2022-10-26T00:15:43;99476.01;;;-0.70;80.42
75549;BME280;64133;56.002;37.208;2022-10-26T00:20:48;99472.19;;;-0.72;80.60
75549;BME280;64133;56.002;37.208;2022-10-26T00:25:56;99477.46;;;-0.75;80.80
75549;BME280;64133;56.002;37.208;2022-10-26T00:31:02;99477.17;;;-0.79;80.69
75549;BME280;64133;56.002;37.208;2022-10-26T00:36:08;99469.27;;;-0.88;81.32
75549;BME280;64133;56.002;37.208;2022-10-26T00:41:15;99460.06;;;-0.83;81.22
75549;BME280;64133;56.002;37.208;2022-10-26T00:46:21;99458.53;;;-0.89;81.60
75549;BME280;64133;56.002;37.208;2022-10-26T00:51:26;99457.32;;;-0.79;81.19
75549;BME280;64133;56.002;37.208;2022-10-26T00:56:30;99460.36;;;-0.79;81.30
75549;BME280;64133;56.002;37.208;2022-10-26T01:01:36;99458.62;;;-0.65;81.04
75549;BME280;64133;56.002;37.208;2022-10-26T01:06:40;99458.20;;;-0.66;80.88
75549;BME280;64133;56.002;37.208;2022-10-26T01:11:45;99447.14;;;-0.58;80.82
75549;BME280;64133;56.002;37.208;2022-10-26T01:16:55;99450.41;;;-0.65;80.96
75549;BME280;64133;56.002;37.208;2022-10-26T01:21:59;99450.53;;;-0.81;81.30
75549;BME280;64133;56.002;37.208;2022-10-26T01:27:14;99446.81;;;-0.86;81.50
75549;BME280;64133;56.002;37.208;2022-10-26T01:32:19;99450.92;;;-0.80;81.27
75549;BME280;64133;56.002;37.208;2022-10-26T01:37:24;99449.70;;;-0.95;81.50
75549;BME280;64133;56.002;37.208;2022-10-26T01:42:28;99455.58;;;-1.03;82.30
75549;BME280;64133;56.002;37.208;2022-10-26T01:47:33;99460.23;;;-1.01;82.16
75549;BME280;64133;56.002;37.208;2022-10-26T01:52:38;99457.12;;;-1.11;82.59
75549;BME280;64133;56.002;37.208;2022-10-26T01:57:43;99454.77;;;-1.05;82.89
75549;BME280;64133;56.002;37.208;2022-10-26T02:03:00;99451.70;;;-1.03;82.64
75549;BME280;64133;56.002;37.208;2022-10-26T02:08:13;99451.08;;;-0.85;82.63
75549;BME280;64133;56.002;37.208;2022-10-26T02:13:19;99450.56;;;-0.69;82.15
75549;BME280;64133;56.002;37.208;2022-10-26T02:18:27;99450.17;;;-0.59;81.58
75549;BME280;64133;56.002;37.208;2022-10-26T02:23:31;99451.83;;;-0.56;81.44
75549;BME280;64133;56.002;37.208;2022-10-26T02:28:38;99446.88;;;-0.51;81.30
75549;BME280;64133;56.002;37.208;2022-10-26T02:33:42;99455.31;;;-0.45;81.23
75549;BME280;64133;56.002;37.208;2022-10-26T02:38:46;99454.69;;;-0.40;81.01
75549;BME280;64133;56.002;37.208;2022-10-26T02:43:53;99455.50;;;-0.38;81.02
75549;BME280;64133;56.002;37.208;2022-10-26T02:48:57;99454.26;;;-0.28;80.81
75549;BME280;64133;56.002;37.208;2022-10-26T02:54:04;99450.20;;;-0.23;80.86
75549;BME280;64133;56.002;37.208;2022-10-26T02:59:09;99440.38;;;-0.26;80.53
75549;BME280;64133;56.002;37.208;2022-10-26T03:04:19;99445.09;;;-0.25;80.60
75549;BME280;64133;56.002;37.208;2022-10-26T03:09:20;99448.17;;;-0.27;80.56
75549;BME280;64133;56.002;37.208;2022-10-26T03:14:25;99451.44;;;-0.22;80.24
75549;BME280;64133;56.002;37.208;2022-10-26T03:19:30;99440.14;;;-0.19;80.33
75549;BME280;64133;56.002;37.208;2022-10-26T03:24:35;99439.19;;;-0.17;79.95
75549;BME280;64133;56.002;37.208;2022-10-26T03:29:40;99431.25;;;-0.12;80.39
75549;BME280;64133;56.002;37.208;2022-10-26T03:34:45;99439.75;;;-0.09;80.01
75549;BME280;64133;56.002;37.208;2022-10-26T03:39:50;99439.48;;;-0.13;80.08
75549;BME280;64133;56.002;37.208;2022-10-26T03:44:55;99445.19;;;-0.05;80.15
75549;BME280;64133;56.002;37.208;2022-10-26T03:50:00;99445.98;;;-0.03;80.15
75549;BME280;64133;56.002;37.208;2022-10-26T03:55:06;99442.00;;;0.01;80.07
75549;BME280;64133;56.002;37.208;2022-10-26T04:00:13;99445.53;;;-0.02;79.84
75549;BME280;64133;56.002;37.208;2022-10-26T04:05:18;99448.50;;;-0.01;80.18
75549;BME280;64133;56.002;37.208;2022-10-26T04:10:23;99448.64;;;-0.04;80.28
75549;BME280;64133;56.002;37.208;2022-10-26T04:15:28;99451.09;;;-0.01;80.06
75549;BME280;64133;56.002;37.208;2022-10-26T04:20:33;99450.98;;;0.02;80.09
75549;BME280;64133;56.002;37.208;2022-10-26T04:25:38;99452.05;;;0.08;79.85
75549;BME280;64133;56.002;37.208;2022-10-26T04:30:43;99451.76;;;0.16;79.67
75549;BME280;64133;56.002;37.208;2022-10-26T04:35:48;99458.30;;;0.14;79.38
75549;BME280;64133;56.002;37.208;2022-10-26T04:40:55;99457.22;;;0.20;79.44
75549;BME280;64133;56.002;37.208;2022-10-26T04:46:00;99458.97;;;0.19;79.48
75549;BME280;64133;56.002;37.208;2022-10-26T04:51:05;99465.82;;;0.32;79.41
75549;BME280;64133;56.002;37.208;2022-10-26T04:56:10;99458.42;;;0.45;79.00
75549;BME280;64133;56.002;37.208;2022-10-26T05:01:15;99459.55;;;0.60;78.68
75549;BME280;64133;56.002;37.208;2022-10-26T05:06:20;99453.23;;;0.67;78.28
75549;BME280;64133;56.002;37.208;2022-10-26T05:11:25;99455.02;;;0.65;78.14
75549;BME280;64133;56.002;37.208;2022-10-26T05:16:30;99458.34;;;0.68;78.31
75549;BME280;64133;56.002;37.208;2022-10-26T05:21:35;99457.24;;;0.96;77.70
75549;BME280;64133;56.002;37.208;2022-10-26T05:26:40;99448.92;;;1.08;77.30
75549;BME280;64133;56.002;37.208;2022-10-26T05:31:45;99445.13;;;1.27;76.79
75549;BME280;64133;56.002;37.208;2022-10-26T05:36:52;99447.19;;;1.29;76.43
75549;BME280;64133;56.002;37.208;2022-10-26T05:41:58;99447.91;;;1.33;76.10
75549;BME280;64133;56.002;37.208;2022-10-26T05:52:16;99451.53;;;1.49;75.04
75549;BME280;64133;56.002;37.208;2022-10-26T05:57:22;99464.59;;;1.76;74.43
75549;BME280;64133;56.002;37.208;2022-10-26T06:02:29;99462.75;;;2.08;73.10
75549;BME280;64133;56.002;37.208;2022-10-26T06:07:33;99468.97;;;2.33;71.92
75549;BME280;64133;56.002;37.208;2022-10-26T06:12:38;99465.56;;;2.41;71.82
75549;BME280;64133;56.002;37.208;2022-10-26T06:17:47;99454.61;;;2.62;70.90
75549;BME280;64133;56.002;37.208;2022-10-26T06:22:58;99455.02;;;2.89;70.12
75549;BME280;64133;56.002;37.208;2022-10-26T06:28:06;99446.91;;;3.21;69.12
75549;BME280;64133;56.002;37.208;2022-10-26T06:33:10;99448.81;;;3.00;68.45
75549;BME280;64133;56.002;37.208;2022-10-26T06:38:15;99460.01;;;3.19;67.89
75549;BME280;64133;56.002;37.208;2022-10-26T06:43:21;99456.09;;;3.70;67.21
75549;BME280;64133;56.002;37.208;2022-10-26T06:48:26;99460.13;;;3.51;65.65
75549;BME280;64133;56.002;37.208;2022-10-26T06:53:32;99466.69;;;3.75;65.14
75549;BME280;64133;56.002;37.208;2022-10-26T06:58:35;99461.41;;;3.60;66.77
75549;BME280;64133;56.002;37.208;2022-10-26T07:03:40;99459.55;;;3.79;65.55
75549;BME280;64133;56.002;37.208;2022-10-26T07:08:45;99463.31;;;4.22;64.92
75549;BME280;64133;56.002;37.208;2022-10-26T07:13:50;99474.13;;;3.74;63.90
75549;BME280;64133;56.002;37.208;2022-10-26T07:18:55;99471.98;;;3.57;65.88
75549;BME280;64133;56.002;37.208;2022-10-26T07:24:00;99467.84;;;3.52;65.73
75549;BME280;64133;56.002;37.208;2022-10-26T07:29:05;99468.53;;;3.65;65.31
75549;BME280;64133;56.002;37.208;2022-10-26T07:34:10;99463.52;;;3.44;64.95
75549;BME280;64133;56.002;37.208;2022-10-26T07:39:15;99475.50;;;3.64;65.09
75549;BME280;64133;56.002;37.208;2022-10-26T07:44:20;99462.86;;;3.98;64.68
75549;BME280;64133;56.002;37.208;2022-10-26T07:49:25;99465.70;;;3.94;63.73
75549;BME280;64133;56.002;37.208;2022-10-26T07:54:30;99463.53;;;4.18;64.02
75549;BME280;64133;56.002;37.208;2022-10-26T07:59:37;99457.38;;;4.27;63.48
75549;BME280;64133;56.002;37.208;2022-10-26T08:04:42;99462.81;;;4.32;62.94
75549;BME280;64133;56.002;37.208;2022-10-26T08:09:47;99467.31;;;4.37;62.33
75549;BME280;64133;56.002;37.208;2022-10-26T08:14:52;99466.13;;;4.58;62.37
75549;BME280;64133;56.002;37.208;2022-10-26T08:19:57;99462.58;;;4.75;62.19
75549;BME280;64133;56.002;37.208;2022-10-26T08:25:06;99462.95;;;4.83;60.43
75549;BME280;64133;56.002;37.208;2022-10-26T08:30:12;99457.42;;;4.73;60.76
75549;BME280;64133;56.002;37.208;2022-10-26T08:35:17;99457.67;;;5.22;60.04
75549;BME280;64133;56.002;37.208;2022-10-26T08:40:24;99452.37;;;6.11;57.67
75549;BME280;64133;56.002;37.208;2022-10-26T08:45:37;99449.39;;;6.02;57.18
75549;BME280;64133;56.002;37.208;2022-10-26T08:50:42;99450.63;;;6.45;57.12
75549;BME280;64133;56.002;37.208;2022-10-26T08:55:47;99456.41;;;6.43;55.69
75549;BME280;64133;56.002;37.208;2022-10-26T09:00:51;99449.14;;;6.41;56.48
75549;BME280;64133;56.002;37.208;2022-10-26T09:06:09;99453.92;;;6.62;55.71
75549;BME280;64133;56.002;37.208;2022-10-26T09:11:16;99454.91;;;6.80;55.39
75549;BME280;64133;56.002;37.208;2022-10-26T09:16:24;99444.20;;;6.71;55.26
75549;BME280;64133;56.002;37.208;2022-10-26T09:21:36;99448.91;;;6.51;55.37
75549;BME280;64133;56.002;37.208;2022-10-26T09:26:42;99454.03;;;6.60;55.49
75549;BME280;64133;56.002;37.208;2022-10-26T09:31:46;99449.23;;;6.94;54.42
75549;BME280;64133;56.002;37.208;2022-10-26T09:36:53;99442.47;;;7.17;54.13
75549;BME280;64133;56.002;37.208;2022-10-26T09:47:15;99450.75;;;6.22;55.34
75549;BME280;64133;56.002;37.208;2022-10-26T09:52:19;99470.57;;;5.84;55.37
75549;BME280;64133;56.002;37.208;2022-10-26T09:57:24;99464.02;;;5.76;55.91
75549;BME280;64133;56.002;37.208;2022-10-26T10:02:39;99456.55;;;6.13;55.75
75549;BME280;64133;56.002;37.208;2022-10-26T10:07:43;99453.84;;;5.58;55.88
75549;BME280;64133;56.002;37.208;2022-10-26T10:12:49;99450.38;;;5.50;56.32
75549;BME280;64133;56.002;37.208;2022-10-26T10:17:53;99462.34;;;5.75;56.68
75549;BME280;64133;56.002;37.208;2022-10-26T10:23:00;99452.64;;;5.85;55.76
75549;BME280;64133;56.002;37.208;2022-10-26T10:28:18;99456.82;;;5.87;56.16
75549;BME280;64133;56.002;37.208;2022-10-26T10:33:14;99458.05;;;5.67;56.20
75549;BME280;64133;56.002;37.208;2022-10-26T10:38:19;99458.49;;;5.45;56.42
75549;BME280;64133;56.002;37.208;2022-10-26T10:43:24;99454.80;;;5.26;57.14
75549;BME280;64133;56.002;37.208;2022-10-26T10:48:29;99452.11;;;5.28;57.77
75549;BME280;64133;56.002;37.208;2022-10-26T10:53:35;99454.74;;;5.42;57.52
75549;BME280;64133;56.002;37.208;2022-10-26T10:58:43;99457.92;;;5.40;57.74
75549;BME280;64133;56.002;37.208;2022-10-26T11:03:58;99454.23;;;5.14;58.28
75549;BME280;64133;56.002;37.208;2022-10-26T11:09:03;99450.16;;;5.39;58.08
75549;BME280;64133;56.002;37.208;2022-10-26T11:14:09;99386.73;;;4.85;58.01
75549;BME280;64133;56.002;37.208;2022-10-26T11:19:17;99451.22;;;5.50;57.93
75549;BME280;64133;56.002;37.208;2022-10-26T11:24:23;99450.20;;;5.53;57.84
75549;BME280;64133;56.002;37.208;2022-10-26T11:29:30;99441.88;;;5.61;57.62
75549;BME280;64133;56.002;37.208;2022-10-26T11:34:36;99442.28;;;5.62;57.69
75549;BME280;64133;56.002;37.208;2022-10-26T11:39:44;99444.48;;;5.46;57.65
75549;BME280;64133;56.002;37.208;2022-10-26T11:44:50;99444.23;;;5.58;57.30
75549;BME280;64133;56.002;37.208;2022-10-26T11:49:56;99445.33;;;5.61;57.45
75549;BME280;64133;56.002;37.208;2022-10-26T11:55:01;99442.07;;;5.50;57.62
75549;BME280;64133;56.002;37.208;2022-10-26T12:00:12;99436.09;;;5.41;57.86
75549;BME280;64133;56.002;37.208;2022-10-26T12:05:19;99441.08;;;5.16;58.49
75549;BME280;64133;56.002;37.208;2022-10-26T12:10:26;99440.84;;;5.42;57.86
75549;BME280;64133;56.002;37.208;2022-10-26T12:21:06;99438.36;;;5.62;57.72
75549;BME280;64133;56.002;37.208;2022-10-26T12:31:51;99430.69;;;5.44;58.16
75549;BME280;64133;56.002;37.208;2022-10-26T12:37:20;99433.47;;;5.27;58.50
75549;BME280;64133;56.002;37.208;2022-10-26T12:42:33;99429.59;;;5.11;58.80
75549;BME280;64133;56.002;37.208;2022-10-26T12:48:03;99439.27;;;5.02;59.27
75549;BME280;64133;56.002;37.208;2022-10-26T12:53:09;99430.94;;;4.88;59.41
75549;BME280;64133;56.002;37.208;2022-10-26T13:04:10;99428.66;;;4.82;59.72
75549;BME280;64133;56.002;37.208;2022-10-26T13:09:16;99418.79;;;4.87;59.65
75549;BME280;64133;56.002;37.208;2022-10-26T13:14:21;99424.02;;;4.87;59.51
75549;BME280;64133;56.002;37.208;2022-10-26T13:19:30;99419.31;;;4.71;59.97
75549;BME280;64133;56.002;37.208;2022-10-26T13:24:33;99415.47;;;4.69;60.17
75549;BME280;64133;56.002;37.208;2022-10-26T13:35:34;99420.64;;;4.55;60.50
75549;BME280;64133;56.002;37.208;2022-10-26T13:40:39;99416.14;;;4.50;61.02
75549;BME280;64133;56.002;37.208;2022-10-26T13:45:49;99418.64;;;4.44;61.41
75549;BME280;64133;56.002;37.208;2022-10-26T13:50:54;99417.70;;;4.29;61.77
75549;BME280;64133;56.002;37.208;2022-10-26T13:56:01;99425.51;;;4.22;61.94
75549;BME280;64133;56.002;37.208;2022-10-26T14:01:12;99430.88;;;4.19;62.08
75549;BME280;64133;56.002;37.208;2022-10-26T14:06:19;99436.20;;;4.09;62.22
75549;BME280;64133;56.002;37.208;2022-10-26T14:11:24;99325.91;;;3.37;62.24
75549;BME280;64133;56.002;37.208;2022-10-26T14:16:29;99438.69;;;4.03;62.37
75549;BME280;64133;56.002;37.208;2022-10-26T14:21:33;99437.35;;;3.96;62.69
75549;BME280;64133;56.002;37.208;2022-10-26T14:26:40;99436.89;;;3.97;62.84
75549;BME280;64133;56.002;37.208;2022-10-26T14:31:45;99438.50;;;3.91;62.93
75549;BME280;64133;56.002;37.208;2022-10-26T14:36:50;99443.21;;;3.84;63.22
75549;BME280;64133;56.002;37.208;2022-10-26T14:41:54;99443.83;;;3.81;63.33
75549;BME280;64133;56.002;37.208;2022-10-26T14:46:59;99424.95;;;3.60;63.41
75549;BME280;64133;56.002;37.208;2022-10-26T14:52:09;99446.14;;;3.69;63.74
75549;BME280;64133;56.002;37.208;2022-10-26T14:57:30;99449.61;;;3.61;64.06
75549;BME280;64133;56.002;37.208;2022-10-26T15:02:35;99459.74;;;3.59;64.17
75549;BME280;64133;56.002;37.208;2022-10-26T15:07:40;99451.02;;;3.51;64.36
75549;BME280;64133;56.002;37.208;2022-10-26T15:12:45;99457.30;;;3.47;64.82
75549;BME280;64133;56.002;37.208;2022-10-26T15:23:04;99453.17;;;3.43;65.05
75549;BME280;64133;56.002;37.208;2022-10-26T15:28:10;99458.33;;;3.27;65.84
75549;BME280;64133;56.002;37.208;2022-10-26T15:33:19;99453.27;;;3.24;66.01
75549;BME280;64133;56.002;37.208;2022-10-26T15:38:25;99463.45;;;3.20;66.37
75549;BME280;64133;56.002;37.208;2022-10-26T15:43:29;99462.00;;;3.14;66.52
75549;BME280;64133;56.002;37.208;2022-10-26T15:48:34;99457.27;;;3.14;66.71
75549;BME280;64133;56.002;37.208;2022-10-26T15:53:41;99468.89;;;3.07;67.63
75549;BME280;64133;56.002;37.208;2022-10-26T15:58:46;99462.06;;;3.04;67.23
75549;BME280;64133;56.002;37.208;2022-10-26T16:03:51;99460.09;;;3.00;67.67
75549;BME280;64133;56.002;37.208;2022-10-26T16:08:56;99464.98;;;2.98;68.52
75549;BME280;64133;56.002;37.208;2022-10-26T16:14:01;99468.56;;;2.95;68.60
75549;BME280;64133;56.002;37.208;2022-10-26T16:19:08;99465.81;;;2.98;68.49
75549;BME280;64133;56.002;37.208;2022-10-26T16:24:12;99464.42;;;2.91;68.78
75549;BME280;64133;56.002;37.208;2022-10-26T16:29:17;99464.50;;;2.90;68.98
75549;BME280;64133;56.002;37.208;2022-10-26T16:34:22;99464.05;;;2.90;69.68
75549;BME280;64133;56.002;37.208;2022-10-26T16:39:27;99466.50;;;2.93;69.82
75549;BME280;64133;56.002;37.208;2022-10-26T16:44:33;99460.14;;;2.90;70.01
75549;BME280;64133;56.002;37.208;2022-10-26T16:49:38;99465.19;;;2.85;70.07
75549;BME280;64133;56.002;37.208;2022-10-26T16:54:43;99459.20;;;2.83;70.27
75549;BME280;64133;56.002;37.208;2022-10-26T16:59:48;99462.95;;;2.77;70.56
75549;BME280;64133;56.002;37.208;2022-10-26T17:04:53;99459.98;;;2.76;70.70
75549;BME280;64133;56.002;37.208;2022-10-26T17:09:58;99464.27;;;2.86;70.38
75549;BME280;64133;56.002;37.208;2022-10-26T17:15:04;99456.69;;;2.81;70.66
75549;BME280;64133;56.002;37.208;2022-10-26T17:20:11;99453.61;;;2.73;71.22
75549;BME280;64133;56.002;37.208;2022-10-26T17:25:16;99453.23;;;2.72;71.27
75549;BME280;64133;56.002;37.208;2022-10-26T17:30:21;99446.73;;;2.72;71.15
75549;BME280;64133;56.002;37.208;2022-10-26T17:35:26;99446.36;;;2.71;71.07
75549;BME280;64133;56.002;37.208;2022-10-26T17:40:32;99441.45;;;2.73;70.88
75549;BME280;64133;56.002;37.208;2022-10-26T17:45:37;99438.23;;;2.68;70.81
75549;BME280;64133;56.002;37.208;2022-10-26T17:50:42;99434.71;;;2.69;70.65
75549;BME280;64133;56.002;37.208;2022-10-26T17:55:47;99436.64;;;2.66;70.96
75549;BME280;64133;56.002;37.208;2022-10-26T18:00:52;99432.88;;;2.63;71.06
75549;BME280;64133;56.002;37.208;2022-10-26T18:05:58;99435.09;;;2.53;71.41
75549;BME280;64133;56.002;37.208;2022-10-26T18:11:04;99434.63;;;2.54;71.49
75549;BME280;64133;56.002;37.208;2022-10-26T18:16:10;99434.30;;;2.51;71.55
75549;BME280;64133;56.002;37.208;2022-10-26T18:21:15;99433.38;;;2.52;71.60
75549;BME280;64133;56.002;37.208;2022-10-26T18:26:20;99436.83;;;2.44;71.59
75549;BME280;64133;56.002;37.208;2022-10-26T18:31:25;99438.18;;;2.42;72.00
75549;BME280;64133;56.002;37.208;2022-10-26T18:36:30;99438.27;;;2.41;71.82
75549;BME280;64133;56.002;37.208;2022-10-26T18:41:35;99439.86;;;2.43;71.67
75549;BME280;64133;56.002;37.208;2022-10-26T18:46:40;99441.92;;;2.37;72.00
75549;BME280;64133;56.002;37.208;2022-10-26T18:51:45;99447.04;;;2.38;71.85
75549;BME280;64133;56.002;37.208;2022-10-26T18:56:50;99443.59;;;2.38;71.59
75549;BME280;64133;56.002;37.208;2022-10-26T19:01:55;99444.36;;;2.31;71.83
75549;BME280;64133;56.002;37.208;2022-10-26T19:07:00;99456.48;;;2.31;71.84
75549;BME280;64133;56.002;37.208;2022-10-26T19:12:06;99455.14;;;2.32;72.04
75549;BME280;64133;56.002;37.208;2022-10-26T19:17:11;99454.43;;;2.29;72.21
75549;BME280;64133;56.002;37.208;2022-10-26T19:22:16;99455.73;;;2.29;72.07
75549;BME280;64133;56.002;37.208;2022-10-26T19:27:21;99454.73;;;2.22;72.26
75549;BME280;64133;56.002;37.208;2022-10-26T19:32:27;99451.80;;;2.20;72.48
75549;BME280;64133;56.002;37.208;2022-10-26T19:37:33;99446.81;;;2.15;72.70
75549;BME280;64133;56.002;37.208;2022-10-26T19:42:38;99457.80;;;2.12;72.98
75549;BME280;64133;56.002;37.208;2022-10-26T19:47:43;99457.63;;;2.25;72.67
75549;BME280;64133;56.002;37.208;2022-10-26T19:52:48;99448.66;;;2.22;72.78
75549;BME280;64133;56.002;37.208;2022-10-26T20:03:07;99442.14;;;2.32;72.80
75549;BME280;64133;56.002;37.208;2022-10-26T20:08:12;99444.79;;;2.31;72.73
75549;BME280;64133;56.002;37.208;2022-10-26T20:13:17;99441.22;;;2.33;72.56
75549;BME280;64133;56.002;37.208;2022-10-26T20:18:25;99442.44;;;2.35;72.75
75549;BME280;64133;56.002;37.208;2022-10-26T20:23:34;99435.42;;;2.37;72.72
75549;BME280;64133;56.002;37.208;2022-10-26T20:28:45;99434.26;;;2.34;72.65
75549;BME280;64133;56.002;37.208;2022-10-26T20:33:51;99434.50;;;2.38;72.72
75549;BME280;64133;56.002;37.208;2022-10-26T20:38:57;99438.62;;;2.33;72.92
75549;BME280;64133;56.002;37.208;2022-10-26T20:44:03;99443.33;;;2.25;73.27
75549;BME280;64133;56.002;37.208;2022-10-26T20:49:10;99439.11;;;2.41;73.08
75549;BME280;64133;56.002;37.208;2022-10-26T20:54:18;99437.91;;;2.48;72.86
75549;BME280;64133;56.002;37.208;2022-10-26T21:04:36;99430.48;;;2.49;72.84
75549;BME280;64133;56.002;37.208;2022-10-26T21:09:41;99433.09;;;2.49;72.90
75549;BME280;64133;56.002;37.208;2022-10-26T21:14:46;99426.11;;;2.41;72.81
75549;BME280;64133;56.002;37.208;2022-10-26T21:19:51;99426.86;;;2.43;73.22
75549;BME280;64133;56.002;37.208;2022-10-26T21:24:56;99425.91;;;2.55;73.04
75549;BME280;64133;56.002;37.208;2022-10-26T21:30:01;99427.64;;;2.45;73.02
75549;BME280;64133;56.002;37.208;2022-10-26T21:35:07;99425.11;;;2.35;73.29
75549;BME280;64133;56.002;37.208;2022-10-26T21:40:13;99421.98;;;2.46;72.98
75549;BME280;64133;56.002;37.208;2022-10-26T21:45:18;99424.72;;;2.43;73.25
75549;BME280;64133;56.002;37.208;2022-10-26T21:50:23;99418.46;;;2.47;73.16
75549;BME280;64133;56.002;37.208;2022-10-26T21:55:28;99415.25;;;2.42;72.94
75549;BME280;64133;56.002;37.208;2022-10-26T22:00:33;99422.52;;;2.35;73.31
75549;BME280;64133;56.002;37.208;2022-10-26T22:05:38;99413.64;;;2.48;73.22
75549;BME280;64133;56.002;37.208;2022-10-26T22:10:43;99409.69;;;2.49;73.11
75549;BME280;64133;56.002;37.208;2022-10-26T22:15:48;99404.71;;;2.45;73.00
75549;BME280;64133;56.002;37.208;2022-10-26T22:20:57;99407.92;;;2.50;73.19
75549;BME280;64133;56.002;37.208;2022-10-26T22:26:05;99405.17;;;2.44;73.00
75549;BME280;64133;56.002;37.208;2022-10-26T22:31:10;99401.88;;;2.41;72.99
75549;BME280;64133;56.002;37.208;2022-10-26T22:36:15;99399.15;;;2.53;72.98
75549;BME280;64133;56.002;37.208;2022-10-26T22:41:20;99393.98;;;2.42;73.00
75549;BME280;64133;56.002;37.208;2022-10-26T22:46:25;99392.67;;;2.34;73.20
75549;BME280;64133;56.002;37.208;2022-10-26T22:51:30;99399.74;;;2.21;73.29
75549;BME280;64133;56.002;37.208;2022-10-26T22:56:35;99401.26;;;2.17;73.50
75549;BME280;64133;56.002;37.208;2022-10-26T23:01:39;99400.40;;;2.26;73.37
75549;BME280;64133;56.002;37.208;2022-10-26T23:06:44;99393.44;;;2.08;73.59
75549;BME280;64133;56.002;37.208;2022-10-26T23:11:49;99389.92;;;2.00;73.85
75549;BME280;64133;56.002;37.208;2022-10-26T23:16:55;99390.65;;;1.94;74.07
75549;BME280;64133;56.002;37.208;2022-10-26T23:22:00;99388.80;;;1.87;74.18
75549;BME280;64133;56.002;37.208;2022-10-26T23:27:05;99390.07;;;1.79;74.41
75549;BME280;64133;56.002;37.208;2022-10-26T23:32:10;99380.08;;;1.69;74.74
75549;BME280;64133;56.002;37.208;2022-10-26T23:37:18;99375.34;;;1.69;74.77
75549;BME280;64133;56.002;37.208;2022-10-26T23:42:23;99382.13;;;1.63;75.09
75549;BME280;64133;56.002;37.208;2022-10-26T23:47:28;99377.52;;;1.59;75.34
75549;BME280;64133;56.002;37.208;2022-10-26T23:52:33;99378.15;;;1.64;75.32
75549;BME280;64133;56.002;37.208;2022-10-26T23:57:40;99377.01;;;1.61;75.52
